Latest Weather Observations for Puckapunyal West (Defence)

IDV60801

Issued at 8:42 pm EST Monday 6 July 2020 (issued every 10 minutes, with the page automatically refreshed every 10 minutes)

About weather observations | Map of weather stations | Latest weather observations for VIC | Other Formats
Station Details ID: 088166 Name: PUCKAPUNYAL WEST (DEFENCE) Lat: -37.02 Lon: 144.85 Height: 293.0 m
Data from the previous 72 hours. | See also: Recent months at Puckapunyal West (Defence)
Date/Time
EST
Temp
°C
App
Temp
°C
Dew
Point
°C
Rel
Hum
%
Delta-T
°C
Wind Press
QNH
hPa
Press
MSL
hPa
Rain since
9am
mm
Dir  Spd
km/h
Gust
km/h
Spd
kts
Gust
kts
06/08:30pm 9.1 7.9 6.5 84 1.2 SSE 2 6 1 3 - - 0.0
06/08:00pm 9.4 7.3 6.8 84 1.2 S 7 13 4 7 - - 0.0
06/07:30pm 9.6 6.4 7.0 84 1.2 S 13 19 7 10 - - 0.0
06/07:00pm 9.9 5.9 6.6 80 1.6 S 17 28 9 15 - - 0.0
06/06:30pm 9.7 7.3 7.0 83 1.3 SSE 9 11 5 6 - - 0.0
06/06:00pm 9.8 7.7 6.7 81 1.5 SSE 7 11 4 6 - - 0.0
06/05:30pm 10.2 8.1 6.7 79 1.7 S 7 13 4 7 - - 0.0
06/05:00pm 10.4 7.9 6.5 77 1.9 S 9 13 5 7 - - 0.0
06/04:30pm 10.7 7.8 6.5 75 2.0 S 11 17 6 9 - - 0.0
06/04:00pm 10.9 8.0 6.5 74 2.1 S 11 17 6 9 - - 0.0
06/03:30pm 11.2 7.9 6.3 72 2.3 S 13 20 7 11 - - 0.0
06/03:00pm 11.5 8.6 6.4 71 2.4 SSE 11 17 6 9 - - 0.0
06/02:30pm 11.8 7.3 6.1 68 2.7 SSW 19 26 10 14 - - 0.0
06/02:00pm 11.3 6.7 5.4 67 2.8 SSW 19 24 10 13 - - 0.0
06/01:30pm 11.6 7.0 5.7 67 2.8 S 19 24 10 13 - - 0.0
06/01:00pm 11.4 6.5 5.3 66 2.9 SSW 20 32 11 17 - - 0.0
06/12:30pm 11.6 8.3 6.5 71 2.5 S 13 19 7 10 - - 0.0
06/12:00pm 11.3 9.7 8.0 80 1.6 SSE 6 13 3 7 - - 0.0
06/11:30am 10.7 9.5 8.1 84 1.3 SSE 4 9 2 5 - - 0.0
06/11:00am 9.9 8.1 7.0 82 1.4 SE 6 7 3 4 - - 0.0
06/10:30am 9.6 9.0 7.5 87 1.0 CALM 0 4 0 2 - - 0.0
06/10:00am 8.6 7.8 6.7 88 0.9 CALM 0 0 0 0 - - 0.0
06/09:30am 7.6 6.9 7.0 96 0.3 CALM 0 0 0 0 - - 0.0
06/09:00am 6.0 5.0 5.7 98 0.1 CALM 0 0 0 0 - - 0.0
06/08:30am 4.4 2.7 4.0 97 0.2 W 2 6 1 3 - - 0.0
06/08:00am 4.7 3.4 4.3 97 0.2 CALM 0 4 0 2 - - 0.0
06/07:30am 3.6 0.9 2.9 95 0.3 SSW 6 7 3 4 - - 0.0
06/07:00am 5.3 4.1 4.7 96 0.3 CALM 0 0 0 0 - - 0.0
06/06:30am 5.2 2.7 4.0 92 0.5 SSE 6 7 3 4 - - 0.0
06/06:00am 6.2 4.9 4.2 87 0.9 CALM 0 0 0 0 - - 0.0
06/05:30am 6.7 4.6 4.0 83 1.2 SSW 4 7 2 4 - - 0.0
06/05:00am 7.3 4.6 3.9 79 1.5 SSE 7 11 4 6 - - 0.0
06/04:30am 8.0 4.4 4.8 80 1.4 S 13 28 7 15 - - 0.0
06/04:00am 7.0 3.3 4.7 85 1.0 SSW 13 17 7 9 - - 0.0
06/03:30am 6.9 4.0 4.4 84 1.1 SSW 9 15 5 8 - - 0.0
06/03:00am 7.3 4.1 5.1 86 1.0 SSW 11 15 6 8 - - 0.0
06/02:30am 7.1 4.7 5.1 87 0.9 SSW 7 11 4 6 - - 0.0
06/02:00am 6.4 3.5 4.6 88 0.8 SSW 9 11 5 6 - - 0.0
06/01:30am 7.4 4.2 4.9 84 1.1 SSW 11 15 6 8 - - 0.0
06/01:00am 8.3 4.7 5.1 80 1.5 SSW 13 19 7 10 - - 0.0
06/12:30am 8.0 4.4 5.1 82 1.3 SSW 13 17 7 9 - - 0.0
06/12:00am 8.6 6.9 6.1 84 1.2 S 4 11 2 6 - - 0.0
 
Date/Time
EST
Temp
°C
App
Temp
°C
Dew
Point
°C
Rel
Hum
%
Delta-T
°C
Wind Press
QNH
hPa
Press
MSL
hPa
Rain since
9am
mm
Dir  Spd
km/h
Gust
km/h
Spd
kts
Gust
kts
05/11:30pm 8.9 6.9 6.3 84 1.2 SSW 6 9 3 5 - - 0.0
05/11:00pm 8.8 7.3 6.8 87 0.9 WSW 4 6 2 3 - - 0.0
05/10:30pm 8.5 6.8 7.4 93 0.5 SSW 6 11 3 6 - - 0.0
05/10:00pm 8.6 8.1 7.7 94 0.4 CALM 0 0 0 0 - - 0.0
05/09:30pm 8.7 6.8 7.6 93 0.5 SSW 7 9 4 5 - - 0.0
05/09:00pm 8.6 7.6 7.2 91 0.7 S 2 6 1 3 - - 0.0
05/08:30pm 8.8 8.2 7.3 90 0.7 CALM 0 0 0 0 - - 0.0
05/08:00pm 8.8 7.7 6.9 88 0.9 SW 2 6 1 3 - - 0.0
05/07:30pm 8.9 7.0 6.9 87 0.9 S 6 9 3 5 - - 0.0
05/07:00pm 9.4 7.5 6.8 84 1.2 S 6 11 3 6 - - 0.0
05/06:30pm 9.5 7.4 6.6 82 1.4 S 7 13 4 7 - - 0.0
05/06:00pm 9.5 6.9 6.2 80 1.5 SSW 9 15 5 8 - - 0.0
05/05:30pm 9.6 6.9 5.8 77 1.8 S 9 11 5 6 - - 0.0
05/05:00pm 9.9 6.5 6.1 77 1.8 SSE 13 19 7 10 - - 0.0
05/04:30pm 10.5 6.7 5.9 73 2.2 S 15 22 8 12 - - 0.0
05/04:00pm 10.8 6.7 6.2 73 2.2 S 17 26 9 14 - - 0.0
05/03:30pm 10.9 6.7 5.9 71 2.4 SSW 17 33 9 18 - - 0.0
05/03:00pm 11.4 7.9 7.1 75 2.1 SSW 15 22 8 12 - - 0.0
05/02:30pm 11.8 8.3 7.3 74 2.2 S 15 24 8 13 - - 0.0
05/02:00pm 11.5 7.2 7.0 74 2.2 S 19 26 10 14 - - 0.0
05/01:30pm 11.9 8.1 7.4 74 2.2 SSW 17 26 9 14 - - 0.0
05/01:00pm 11.4 6.9 6.3 71 2.4 SSE 19 28 10 15 - - 0.0
05/12:30pm 11.9 7.5 6.4 69 2.6 S 19 26 10 14 - - 0.0
05/12:00pm 12.1 9.2 6.4 68 2.7 S 11 20 6 11 - - 0.0
05/11:30am 12.8 8.8 6.8 67 2.9 S 17 28 9 15 - - 0.0
05/11:00am 11.4 7.2 5.7 68 2.7 SSW 17 28 9 15 - - 0.0
05/10:30am 10.9 6.7 5.9 71 2.4 SSW 17 28 9 15 - - 0.0
05/10:00am 9.9 6.5 5.7 75 2.0 SSW 13 24 7 13 - - 0.0
05/09:30am 8.3 6.1 5.4 82 1.3 SSE 6 15 3 8 - - 0.0
05/09:00am 8.3 5.5 5.2 81 1.4 WSW 9 13 5 7 - - 0.2
05/08:30am 6.9 4.5 5.2 89 0.8 NNW 7 9 4 5 - - 0.2
05/08:00am 5.9 3.5 4.4 90 0.7 WNW 6 9 3 5 - - 0.2
05/07:30am 6.7 4.3 5.3 91 0.6 WSW 7 13 4 7 - - 0.2
05/07:00am 6.4 3.2 5.0 91 0.6 W 11 17 6 9 - - 0.2
05/06:30am 6.3 3.1 5.3 93 0.4 W 11 15 6 8 - - 0.2
05/06:00am 5.4 2.1 4.4 93 0.4 WNW 11 17 6 9 - - 0.2
05/05:30am 5.6 3.5 3.9 89 0.7 W 4 7 2 4 - - 0.2
05/05:00am 6.3 5.2 4.9 91 0.6 CALM 0 6 0 3 - - 0.2
05/04:30am 6.0 3.7 4.6 91 0.6 NW 6 7 3 4 - - 0.2
05/04:00am 6.5 5.3 4.7 88 0.8 CALM 0 4 0 2 - - 0.2
05/03:30am 7.2 5.3 4.7 84 1.1 WSW 4 6 2 3 - - 0.0
05/03:00am 7.8 4.6 4.9 82 1.3 SSW 11 15 6 8 - - 0.0
05/02:30am 8.6 3.3 5.2 79 1.5 SSW 22 32 12 17 - - 0.0
05/02:00am 8.7 3.9 5.4 80 1.5 SSW 20 32 11 17 - - 0.0
05/01:30am 8.8 4.3 5.9 82 1.3 SSW 19 28 10 15 - - 0.0
05/01:00am 8.1 5.1 5.9 86 1.0 SSW 11 17 6 9 - - 0.0
05/12:30am 8.7 5.4 6.3 85 1.1 SSW 13 19 7 10 - - 0.0
05/12:00am 8.3 5.4 6.6 89 0.8 SW 11 15 6 8 - - 0.0
 
Date/Time
EST
Temp
°C
App
Temp
°C
Dew
Point
°C
Rel
Hum
%
Delta-T
°C
Wind Press
QNH
hPa
Press
MSL
hPa
Rain since
9am
mm
Dir  Spd
km/h
Gust
km/h
Spd
kts
Gust
kts
04/11:30pm 8.0 5.5 6.6 91 0.7 WSW 9 13 5 7 - - 0.0
04/11:00pm 8.5 6.2 7.3 92 0.6 SW 9 15 5 8 - - 0.0
04/10:30pm 7.9 5.5 7.0 94 0.4 W 9 15 5 8 - - 0.0
04/10:00pm 7.8 5.8 6.9 94 0.4 WNW 7 13 4 7 - - 0.0
04/09:30pm 7.8 5.8 7.2 96 0.3 NW 7 9 4 5 - - 0.0
04/09:00pm 8.0 5.3 7.2 95 0.4 WNW 11 19 6 10 - - 0.0
04/08:30pm 8.4 5.0 7.5 94 0.4 W 15 24 8 13 - - 0.0
04/08:00pm 8.7 4.9 7.6 93 0.5 W 17 24 9 13 - - 0.0
04/07:30pm 9.2 5.8 7.8 91 0.7 W 15 20 8 11 - - 0.0
04/07:00pm 9.2 6.3 8.0 92 0.6 W 13 17 7 9 - - 0.0
04/06:30pm 9.3 6.3 7.9 91 0.7 WSW 13 19 7 10 - - 0.0
04/06:00pm 9.0 5.7 7.9 93 0.5 W 15 22 8 12 - - 0.0
04/05:30pm 9.3 5.6 7.9 91 0.7 WNW 17 20 9 11 - - 0.0
04/05:00pm 9.4 6.0 7.7 89 0.8 WNW 15 20 8 11 - - 0.0
04/04:30pm 9.8 6.8 7.6 86 1.1 WNW 13 22 7 12 - - 0.0
04/04:00pm 9.7 6.6 7.3 85 1.2 WNW 13 24 7 13 - - 0.0
04/03:30pm 9.9 6.8 7.3 84 1.3 W 13 22 7 12 - - 0.0
04/03:00pm 10.2 6.3 7.1 81 1.5 WNW 17 22 9 12 - - 0.0
04/02:30pm 10.4 7.0 7.6 83 1.4 WNW 15 20 8 11 - - 0.0
04/02:00pm 10.5 7.4 7.4 81 1.5 W 13 22 7 12 - - 0.0
04/01:30pm 10.7 7.7 7.6 81 1.5 WSW 13 22 7 12 - - 0.0
04/01:00pm 10.3 5.9 7.5 83 1.4 W 20 28 11 15 - - 0.0
04/12:30pm 8.8 5.9 6.6 86 1.0 W 11 22 6 12 - - 0.0
04/12:00pm 7.6 3.4 5.7 88 0.9 W 17 26 9 14 - - 0.0
04/11:30am 7.0 3.4 5.2 88 0.8 NW 13 24 7 13 - - 0.0
04/11:00am 7.0 3.1 5.5 90 0.7 WNW 15 24 8 13 - - 0.0
04/10:30am 6.5 2.1 5.0 90 0.7 WNW 17 24 9 13 - - 0.0
04/10:00am 5.6 0.6 4.6 93 0.4 WNW 20 30 11 16 - - 0.0
04/09:30am 4.7 0.2 4.0 95 0.3 WNW 17 24 9 13 - - 0.0
04/09:00am 4.2 -0.9 3.3 94 0.4 W 19 30 10 16 - - 6.2
04/08:30am 3.9 -1.4 2.9 93 0.4 WNW 20 28 11 15 - - 6.2
04/08:00am 3.7 -0.8 1.9 88 0.7 WNW 15 22 8 12 - - 6.2
04/07:30am 4.1 -0.5 1.8 85 0.9 W 15 22 8 12 - - 6.2
04/07:00am 3.8 -0.4 1.5 85 0.9 WNW 13 17 7 9 - - 6.2
04/06:30am 5.3 1.9 2.0 79 1.3 WSW 9 13 5 7 - - 6.2
04/06:00am 5.5 2.1 2.0 78 1.4 SW 9 15 5 8 - - 6.2
04/05:30am 5.6 1.1 1.9 77 1.5 SW 15 22 8 12 - - 6.2
04/05:00am 5.4 0.8 1.3 75 1.6 SW 15 19 8 10 - - 6.2
04/04:30am 5.2 0.1 1.0 74 1.7 SW 17 26 9 14 - - 6.2
04/04:00am 4.9 0.1 0.5 73 1.7 SW 15 22 8 12 - - 6.2
04/03:30am 5.3 1.4 0.9 73 1.8 SSW 11 19 6 10 - - 6.2
04/03:00am 5.5 0.8 1.2 74 1.7 SW 15 22 8 12 - - 6.2
04/02:30am 5.9 1.0 2.2 77 1.5 SW 17 28 9 15 - - 6.2
04/02:00am 5.9 1.4 2.4 78 1.5 SW 15 26 8 14 - - 6.2
04/01:30am 6.0 1.7 3.2 82 1.2 SW 15 26 8 14 - - 6.2
04/01:00am 5.7 1.8 3.4 85 1.0 SW 13 20 7 11 - - 6.2
04/12:30am 5.3 2.1 3.0 85 1.0 SW 9 17 5 9 - - 6.2
04/12:00am 5.4 1.0 2.8 83 1.1 SSW 15 20 8 11 - - 6.2
 
Date/Time
EST
Temp
°C
App
Temp
°C
Dew
Point
°C
Rel
Hum
%
Delta-T
°C
Wind Press
QNH
hPa
Press
MSL
hPa
Rain since
9am
mm
Dir  Spd
km/h
Gust
km/h
Spd
kts
Gust
kts
03/11:30pm 5.2 1.1 2.4 82 1.2 SW 13 17 7 9 - - 6.2
03/11:00pm 5.0 0.9 2.4 83 1.1 SW 13 19 7 10 - - 6.2
03/10:30pm 5.0 0.9 2.4 83 1.1 SW 13 20 7 11 - - 6.2
03/10:00pm 3.5 -1.0 2.0 90 0.6 WNW 15 20 8 11 - - 6.2
03/09:30pm 3.4 -0.1 1.4 87 0.8 NW 9 15 5 8 - - 6.2
03/09:00pm 5.4 2.0 1.9 78 1.4 WSW 9 17 5 9 - - 6.2

Other formats

Comma delimited format used in spreadsheet applications
http://www.bom.gov.au/fwo/IDV60801/IDV60801.94856.axf

JavaScript Object Notation format (JSON) in row-major order
http://www.bom.gov.au/fwo/IDV60801/IDV60801.94856.json

Data quality

Most of these data are generated automatically and are frequently updated. Quality checks on data are not normally performed. It is possible for incorrect values to appear. Refer to information at About Latest Weather Observations and please check the disclaimer before using these data.